createdAt,value
2024-05-09T00:00:15.489Z,539.17
2024-05-09T00:01:20.725Z,537.53
2024-05-09T00:02:27.594Z,538.63
2024-05-09T00:03:34.478Z,539.03
2024-05-09T00:04:41.292Z,539.47
2024-05-09T00:05:48.071Z,536.80
2024-05-09T00:06:54.810Z,534.70
2024-05-09T00:08:01.707Z,532.90
2024-05-09T00:09:08.553Z,530.90
2024-05-09T00:10:25.033Z,527.70
2024-05-09T00:11:26.997Z,528.90
2024-05-09T00:12:33.724Z,529.47
2024-05-09T00:13:40.480Z,530.63
2024-05-09T00:14:47.194Z,533.00
2024-05-09T00:15:53.930Z,534.17
2024-05-09T00:17:00.763Z,534.20
2024-05-09T00:18:08.254Z,533.70
2024-05-09T00:19:15.392Z,533.43
2024-05-09T00:20:28.389Z,533.93
2024-05-09T00:21:33.857Z,533.30
2024-05-09T00:22:40.630Z,536.57
2024-05-09T00:23:47.386Z,533.20
2024-05-09T00:24:54.103Z,538.37
2024-05-09T00:26:00.889Z,536.57
2024-05-09T00:27:08.453Z,529.87
2024-05-09T00:28:15.912Z,532.37
2024-05-09T00:29:22.693Z,531.07
2024-05-09T00:30:34.483Z,534.63
2024-05-09T00:31:41.080Z,534.90
2024-05-09T00:32:47.960Z,536.83
2024-05-09T00:33:54.824Z,537.60
2024-05-09T00:35:01.635Z,536.73
2024-05-09T00:36:08.345Z,531.63
2024-05-09T00:37:15.083Z,533.77
2024-05-09T00:38:21.882Z,537.47
2024-05-09T00:39:28.621Z,536.90
2024-05-09T00:40:39.613Z,534.47
2024-05-09T00:41:47.005Z,533.73
2024-05-09T00:42:53.738Z,532.07
2024-05-09T00:44:00.490Z,530.30
2024-05-09T00:45:07.261Z,527.90
2024-05-09T00:46:13.992Z,530.10
2024-05-09T00:47:21.011Z,533.80
2024-05-09T00:48:28.027Z,533.37
2024-05-09T00:49:34.929Z,532.90
2024-05-09T00:50:42.247Z,534.90
2024-05-09T00:51:49.108Z,535.43
2024-05-09T00:52:55.890Z,533.33
2024-05-09T00:54:02.602Z,530.23
2024-05-09T00:55:09.360Z,528.90
2024-05-09T00:56:16.185Z,533.23
2024-05-09T00:57:22.868Z,533.03
2024-05-09T00:58:29.596Z,537.83
2024-05-09T00:59:36.384Z,538.10
2024-05-09T01:00:43.248Z,534.10
2024-05-09T01:01:50.174Z,534.27
2024-05-09T01:02:57.030Z,534.90
2024-05-09T01:04:03.830Z,533.57
2024-05-09T01:05:10.864Z,530.90
2024-05-09T01:06:17.653Z,529.97
2024-05-09T01:07:24.415Z,529.57
2024-05-09T01:08:31.452Z,530.47
2024-05-09T01:09:38.225Z,529.37
2024-05-09T01:10:46.185Z,531.50
2024-05-09T01:11:55.021Z,534.17
2024-05-09T01:13:01.879Z,535.23
2024-05-09T01:14:08.630Z,535.37
2024-05-09T01:15:15.333Z,534.00
2024-05-09T01:16:22.040Z,533.73
2024-05-09T01:17:28.966Z,534.30
2024-05-09T01:18:35.920Z,535.47
2024-05-09T01:19:42.846Z,537.17
2024-05-09T01:20:49.756Z,535.53
2024-05-09T01:21:56.544Z,534.57
2024-05-09T01:23:03.301Z,534.90
2024-05-09T01:24:10.026Z,538.57
2024-05-09T01:25:16.775Z,536.37
2024-05-09T01:26:23.522Z,534.80
2024-05-09T01:27:30.235Z,530.00
2024-05-09T01:28:37.013Z,525.50
2024-05-09T01:29:43.722Z,531.10
2024-05-09T01:30:50.448Z,534.10
2024-05-09T01:31:57.298Z,531.50
2024-05-09T01:33:04.978Z,530.27
2024-05-09T01:34:12.604Z,527.70
2024-05-09T01:35:19.375Z,528.93
2024-05-09T01:36:26.081Z,530.47
2024-05-09T01:37:32.827Z,532.80
2024-05-09T01:38:39.604Z,534.73
2024-05-09T01:39:46.361Z,535.73
2024-05-09T01:40:53.180Z,533.67
2024-05-09T01:41:59.893Z,532.50
2024-05-09T01:43:06.882Z,532.53
2024-05-09T01:44:13.716Z,533.70
2024-05-09T01:45:20.690Z,535.03
2024-05-09T01:46:27.443Z,536.57
2024-05-09T01:47:34.365Z,536.70
2024-05-09T01:48:41.285Z,537.60
2024-05-09T01:49:48.036Z,540.50
2024-05-09T01:50:54.800Z,539.10
2024-05-09T01:52:01.580Z,538.60
2024-05-09T01:53:08.499Z,536.63
2024-05-09T01:54:15.288Z,538.10
2024-05-09T01:55:22.010Z,539.33
2024-05-09T01:56:28.893Z,538.30
2024-05-09T01:57:35.676Z,539.17
2024-05-09T01:58:42.504Z,539.03
2024-05-09T01:59:49.386Z,538.83
2024-05-09T02:00:56.159Z,538.97
2024-05-09T02:02:03.128Z,534.53
2024-05-09T02:03:11.544Z,541.53
2024-05-09T02:04:21.187Z,539.40
2024-05-09T02:05:28.165Z,542.17
2024-05-09T02:06:34.946Z,539.53
2024-05-09T02:07:41.692Z,535.37
2024-05-09T02:08:48.430Z,532.27
2024-05-09T02:09:55.183Z,534.03
2024-05-09T02:11:02.133Z,534.23
2024-05-09T02:12:09.171Z,538.13
2024-05-09T02:13:16.549Z,535.90
2024-05-09T02:14:23.633Z,534.80
2024-05-09T02:15:30.525Z,535.37
2024-05-09T02:16:37.254Z,534.80
2024-05-09T02:17:44.452Z,533.33
2024-05-09T02:18:51.553Z,532.30
2024-05-09T02:19:58.342Z,529.87
2024-05-09T02:21:05.190Z,528.10
2024-05-09T02:22:12.016Z,528.27
2024-05-09T02:23:18.771Z,527.43
2024-05-09T02:24:25.513Z,528.23
2024-05-09T02:25:32.429Z,526.90
2024-05-09T02:26:39.285Z,532.63
2024-05-09T02:27:46.007Z,534.93
2024-05-09T02:28:52.758Z,531.27
2024-05-09T02:29:59.520Z,533.87
2024-05-09T02:31:06.263Z,531.90
2024-05-09T02:32:13.096Z,524.63
2024-05-09T02:33:20.192Z,524.57
2024-05-09T02:34:27.162Z,525.07
2024-05-09T02:35:34.093Z,522.13
2024-05-09T02:36:40.858Z,521.93
2024-05-09T02:37:47.599Z,521.33
2024-05-09T02:38:54.352Z,521.63
2024-05-09T02:40:01.094Z,522.47
2024-05-09T02:41:07.878Z,525.67
2024-05-09T02:42:14.818Z,532.10
2024-05-09T02:43:21.560Z,536.70
2024-05-09T02:44:28.297Z,536.60
2024-05-09T02:45:34.991Z,535.03
2024-05-09T02:46:41.747Z,532.60
2024-05-09T02:47:48.741Z,531.50
2024-05-09T02:48:55.725Z,532.17
2024-05-09T02:50:02.562Z,531.93
2024-05-09T02:51:09.971Z,531.90
2024-05-09T02:52:16.825Z,531.00
2024-05-09T02:53:23.640Z,530.00
2024-05-09T02:54:30.376Z,529.97
2024-05-09T02:55:37.147Z,530.90
2024-05-09T02:56:43.896Z,530.23
2024-05-09T02:57:50.621Z,527.07
2024-05-09T02:58:57.424Z,527.43
2024-05-09T03:00:06.107Z,528.33
2024-05-09T03:01:14.482Z,527.23
2024-05-09T03:02:21.421Z,530.17
2024-05-09T03:03:28.470Z,529.60
2024-05-09T03:04:35.490Z,530.60
2024-05-09T03:05:42.764Z,533.73
2024-05-09T03:06:49.643Z,534.23
2024-05-09T03:07:56.480Z,535.00
2024-05-09T03:09:03.269Z,538.13
2024-05-09T03:10:18.259Z,539.60
2024-05-09T03:11:21.697Z,537.57
2024-05-09T03:12:28.538Z,534.20
2024-05-09T03:13:35.333Z,532.40
2024-05-09T03:14:42.102Z,532.00
2024-05-09T03:15:48.827Z,533.20
2024-05-09T03:16:55.588Z,535.33
2024-05-09T03:18:02.594Z,533.10
2024-05-09T03:19:09.820Z,534.47
2024-05-09T03:20:23.379Z,535.63
2024-05-09T03:21:28.236Z,535.00
2024-05-09T03:22:34.956Z,536.50
2024-05-09T03:23:41.783Z,539.67
2024-05-09T03:24:48.580Z,539.73
2024-05-09T03:25:55.320Z,536.33
2024-05-09T03:27:02.069Z,535.67
2024-05-09T03:28:08.793Z,533.20
2024-05-09T03:29:15.557Z,534.03
2024-05-09T03:30:30.678Z,531.07
2024-05-09T03:31:33.942Z,532.23
2024-05-09T03:32:40.815Z,533.10
2024-05-09T03:33:47.776Z,538.03
2024-05-09T03:34:54.648Z,534.67
2024-05-09T03:36:01.373Z,533.43
2024-05-09T03:37:08.118Z,539.40
2024-05-09T03:38:15.071Z,538.67
2024-05-09T03:39:21.961Z,532.67
2024-05-09T03:40:30.912Z,531.30
2024-05-09T03:41:38.092Z,530.13
2024-05-09T03:42:44.865Z,532.83
2024-05-09T03:43:51.661Z,532.67
2024-05-09T03:44:58.404Z,528.30
2024-05-09T03:46:05.108Z,529.60
2024-05-09T03:47:11.962Z,533.30
2024-05-09T03:48:19.121Z,535.50
2024-05-09T03:49:26.298Z,536.97
2024-05-09T03:50:35.650Z,537.40
2024-05-09T03:51:43.481Z,535.80
2024-05-09T03:52:50.285Z,535.97
2024-05-09T03:53:57.011Z,538.43
2024-05-09T03:55:03.742Z,541.37
2024-05-09T03:56:10.506Z,540.93
2024-05-09T03:57:17.476Z,539.33
2024-05-09T03:58:24.193Z,539.23
2024-05-09T03:59:31.149Z,542.10
2024-05-09T04:00:39.686Z,542.97
2024-05-09T04:01:47.170Z,542.70
2024-05-09T04:02:54.127Z,542.50
2024-05-09T04:04:00.983Z,542.30
2024-05-09T04:05:07.792Z,546.03
2024-05-09T04:06:14.546Z,546.77
2024-05-09T04:07:21.277Z,546.23
2024-05-09T04:08:28.032Z,545.13
2024-05-09T04:09:34.753Z,544.73
2024-05-09T04:10:41.482Z,545.33
2024-05-09T04:11:48.418Z,545.07
2024-05-09T04:12:55.180Z,546.27
2024-05-09T04:14:01.997Z,546.27
2024-05-09T04:15:12.156Z,543.50
2024-05-09T04:16:20.080Z,546.27
2024-05-09T04:17:27.058Z,545.27
2024-05-09T04:18:34.075Z,546.97
2024-05-09T04:19:40.989Z,547.20
2024-05-09T04:20:47.838Z,546.53
2024-05-09T04:21:54.593Z,541.20
2024-05-09T04:23:01.406Z,540.67
2024-05-09T04:24:08.137Z,537.37
2024-05-09T04:25:14.850Z,537.30
2024-05-09T04:26:21.575Z,535.73
2024-05-09T04:27:28.359Z,537.70
2024-05-09T04:28:35.059Z,537.67
2024-05-09T04:29:41.793Z,542.40
2024-05-09T04:30:48.488Z,538.87
2024-05-09T04:31:55.387Z,536.33
2024-05-09T04:33:02.291Z,538.07
2024-05-09T04:34:09.445Z,538.83
2024-05-09T04:35:16.287Z,537.93
2024-05-09T04:36:23.005Z,535.83
2024-05-09T04:37:29.745Z,533.80
2024-05-09T04:38:36.620Z,536.20
2024-05-09T04:39:43.431Z,536.93
2024-05-09T04:40:50.226Z,537.47
2024-05-09T04:41:56.977Z,540.87
2024-05-09T04:43:03.704Z,542.07
2024-05-09T04:44:10.431Z,540.97
2024-05-09T04:45:17.132Z,540.17
2024-05-09T04:46:23.861Z,539.27
2024-05-09T04:47:30.818Z,537.83
2024-05-09T04:48:37.822Z,538.57
2024-05-09T04:49:44.691Z,539.77
2024-05-09T04:50:51.582Z,540.23
2024-05-09T04:51:58.416Z,543.97
2024-05-09T04:53:05.798Z,546.13
2024-05-09T04:54:25.790Z,549.07
2024-05-09T04:55:24.489Z,551.17
2024-05-09T04:56:31.304Z,551.20
2024-05-09T04:57:38.054Z,551.07
2024-05-09T04:58:44.788Z,548.70
2024-05-09T04:59:51.603Z,544.13
2024-05-09T05:00:58.391Z,541.97
2024-05-09T05:02:05.325Z,542.83
2024-05-09T05:03:14.712Z,540.83
2024-05-09T05:04:22.826Z,540.53
2024-05-09T05:05:29.627Z,539.47
2024-05-09T05:06:36.396Z,537.40
2024-05-09T05:07:43.129Z,536.07
2024-05-09T05:08:49.881Z,533.00
2024-05-09T05:09:56.578Z,530.10
2024-05-09T05:11:03.435Z,532.40
2024-05-09T05:12:10.436Z,535.20
2024-05-09T05:13:18.590Z,534.93
2024-05-09T05:14:26.112Z,534.20
2024-05-09T05:15:32.843Z,535.17
2024-05-09T05:16:39.608Z,537.30
2024-05-09T05:17:46.537Z,535.60
2024-05-09T05:18:53.591Z,534.77
2024-05-09T05:20:00.631Z,533.20
2024-05-09T05:21:07.474Z,530.33
2024-05-09T05:22:14.218Z,528.60
2024-05-09T05:23:21.038Z,526.90
2024-05-09T05:24:27.843Z,525.10
2024-05-09T05:25:34.584Z,528.50
2024-05-09T05:26:41.343Z,529.77
2024-05-09T05:27:48.084Z,529.23
2024-05-09T05:28:54.906Z,533.50
2024-05-09T05:30:01.656Z,538.43
2024-05-09T05:31:08.354Z,539.53
2024-05-09T05:32:15.309Z,540.73
2024-05-09T05:33:23.076Z,544.43
2024-05-09T05:34:30.226Z,545.80
2024-05-09T05:35:37.042Z,550.57
2024-05-09T05:36:43.815Z,550.70
2024-05-09T05:37:50.525Z,552.10
2024-05-09T05:38:57.323Z,553.27
2024-05-09T05:40:04.443Z,551.40
2024-05-09T05:41:12.551Z,549.97
2024-05-09T05:42:19.350Z,548.70
2024-05-09T05:43:26.032Z,545.77
2024-05-09T05:44:32.827Z,543.90
2024-05-09T05:45:39.595Z,540.43
2024-05-09T05:46:46.288Z,540.53
2024-05-09T05:47:53.275Z,538.17
2024-05-09T05:49:00.372Z,539.87
2024-05-09T05:50:14.469Z,542.47
2024-05-09T05:51:18.953Z,538.80
2024-05-09T05:52:25.783Z,536.47
2024-05-09T05:53:32.573Z,534.77
2024-05-09T05:54:39.364Z,532.77
2024-05-09T05:55:46.113Z,532.23
2024-05-09T05:56:52.812Z,533.37
2024-05-09T05:57:59.532Z,533.20
2024-05-09T05:59:06.362Z,532.47
2024-05-09T06:00:21.548Z,537.13
2024-05-09T06:01:24.678Z,540.00
2024-05-09T06:02:31.500Z,541.97
2024-05-09T06:03:38.686Z,542.63
2024-05-09T06:04:46.076Z,538.97
2024-05-09T06:05:52.938Z,538.10
2024-05-09T06:06:59.682Z,533.83
2024-05-09T06:08:06.429Z,529.00
2024-05-09T06:09:13.145Z,529.57
2024-05-09T06:10:25.466Z,530.03
2024-05-09T06:11:31.714Z,527.33
2024-05-09T06:12:38.585Z,527.10
2024-05-09T06:13:45.317Z,527.63
2024-05-09T06:14:52.070Z,528.83
2024-05-09T06:15:58.781Z,529.03
2024-05-09T06:17:05.576Z,530.37
2024-05-09T06:18:12.968Z,529.77
2024-05-09T06:19:20.040Z,529.97
2024-05-09T06:20:34.772Z,530.30
2024-05-09T06:21:38.439Z,532.23
2024-05-09T06:22:45.217Z,531.43
2024-05-09T06:23:51.981Z,529.70
2024-05-09T06:24:58.727Z,527.07
2024-05-09T06:26:05.552Z,528.17
2024-05-09T06:27:12.300Z,528.93
2024-05-09T06:28:19.040Z,528.20
2024-05-09T06:29:25.881Z,527.87
2024-05-09T06:30:38.802Z,525.00
2024-05-09T06:31:44.482Z,523.83
2024-05-09T06:32:51.346Z,524.80
2024-05-09T06:33:58.398Z,525.70
2024-05-09T06:35:05.304Z,527.00
2024-05-09T06:36:12.004Z,529.80
2024-05-09T06:37:18.723Z,531.80
2024-05-09T06:38:25.487Z,533.03
2024-05-09T06:39:32.309Z,534.50
2024-05-09T06:40:40.539Z,532.80
2024-05-09T06:41:48.801Z,532.90
2024-05-09T06:42:55.518Z,531.10
2024-05-09T06:44:02.275Z,529.07
2024-05-09T06:45:09.017Z,529.70
2024-05-09T06:46:15.764Z,528.73
2024-05-09T06:47:22.535Z,528.63
2024-05-09T06:48:29.566Z,527.23
2024-05-09T06:49:36.422Z,527.40
2024-05-09T06:50:43.279Z,527.77
2024-05-09T06:51:50.086Z,525.30
2024-05-09T06:52:56.806Z,523.90
2024-05-09T06:54:03.523Z,522.93
2024-05-09T06:55:10.274Z,522.47
2024-05-09T06:56:17.010Z,522.50
2024-05-09T06:57:23.773Z,524.33
2024-05-09T06:58:30.542Z,527.20
2024-05-09T06:59:37.305Z,527.97
2024-05-09T07:00:44.084Z,528.63
2024-05-09T07:01:50.890Z,529.23
2024-05-09T07:02:58.990Z,530.80
2024-05-09T07:04:06.929Z,533.50
2024-05-09T07:05:13.946Z,530.50
2024-05-09T07:06:20.849Z,527.03
2024-05-09T07:07:27.611Z,525.43
2024-05-09T07:08:34.430Z,524.37
2024-05-09T07:09:41.214Z,523.47
2024-05-09T07:10:48.045Z,522.07
2024-05-09T07:11:54.974Z,519.90
2024-05-09T07:13:01.765Z,519.97
2024-05-09T07:14:08.531Z,523.03
2024-05-09T07:15:15.223Z,523.00
2024-05-09T07:16:21.962Z,521.17
2024-05-09T07:17:28.869Z,521.50
2024-05-09T07:18:36.083Z,522.80
2024-05-09T07:19:42.984Z,523.87
2024-05-09T07:20:50.637Z,508.63
2024-05-09T07:21:57.659Z,527.80
2024-05-09T07:23:04.472Z,529.20
2024-05-09T07:24:11.326Z,531.47
2024-05-09T07:25:18.101Z,530.70
2024-05-09T07:26:24.898Z,527.83
2024-05-09T07:27:31.601Z,528.03
2024-05-09T07:28:38.547Z,528.80
2024-05-09T07:29:45.320Z,524.77
2024-05-09T07:30:52.075Z,522.33
2024-05-09T07:31:58.801Z,524.63
2024-05-09T07:33:05.676Z,525.73
2024-05-09T07:34:12.700Z,523.23
2024-05-09T07:35:19.781Z,518.20
2024-05-09T07:36:26.643Z,517.43
2024-05-09T07:37:33.365Z,518.07
2024-05-09T07:38:40.253Z,519.67
2024-05-09T07:39:47.032Z,518.03
2024-05-09T07:40:53.818Z,518.07
2024-05-09T07:42:00.526Z,519.07
2024-05-09T07:43:07.615Z,517.47
2024-05-09T07:44:14.444Z,518.80
2024-05-09T07:45:40.167Z,519.27
2024-05-09T07:49:12.446Z,517.20
2024-05-09T07:53:38.268Z,526.10
2024-05-09T07:54:29.588Z,529.57
2024-05-09T07:55:36.675Z,530.10
2024-05-09T07:56:43.607Z,530.23
2024-05-09T07:57:50.413Z,530.97
2024-05-09T07:58:57.217Z,531.37
2024-05-09T08:00:04.579Z,530.67
2024-05-09T08:01:11.545Z,528.07
2024-05-09T08:02:18.370Z,525.57
2024-05-09T08:03:25.219Z,525.83
2024-05-09T08:04:32.070Z,524.30
2024-05-09T08:05:38.950Z,525.07
2024-05-09T08:06:45.875Z,527.77
2024-05-09T08:07:52.591Z,528.53
2024-05-09T08:09:03.098Z,527.63
2024-05-09T08:10:15.227Z,527.67
2024-05-09T08:11:22.605Z,529.27
2024-05-09T08:12:29.341Z,527.23
2024-05-09T08:13:36.060Z,528.70
2024-05-09T08:14:42.775Z,530.23
2024-05-09T08:15:49.514Z,529.13
2024-05-09T08:16:56.271Z,528.10
2024-05-09T08:18:03.205Z,525.73
2024-05-09T08:19:10.157Z,525.33
2024-05-09T08:20:26.591Z,522.53
2024-05-09T08:21:28.622Z,517.77
2024-05-09T08:22:35.394Z,517.37
2024-05-09T08:23:42.141Z,516.77
2024-05-09T08:24:48.915Z,517.37
2024-05-09T08:25:55.669Z,515.90
2024-05-09T08:27:02.380Z,518.07
2024-05-09T08:28:09.298Z,519.17
2024-05-09T08:29:16.211Z,518.80
2024-05-09T08:30:29.817Z,517.93
2024-05-09T08:31:34.607Z,519.80
2024-05-09T08:32:41.375Z,523.07
2024-05-09T08:33:48.650Z,520.03
2024-05-09T08:34:55.609Z,518.97
2024-05-09T08:36:02.384Z,522.13
2024-05-09T08:37:13.276Z,524.63
2024-05-09T08:38:20.761Z,526.10
2024-05-09T08:39:27.623Z,527.23
2024-05-09T08:40:36.423Z,527.53
2024-05-09T08:41:44.534Z,526.53
2024-05-09T08:42:51.306Z,524.97
2024-05-09T08:43:58.047Z,520.63
2024-05-09T08:45:04.775Z,520.87
2024-05-09T08:46:11.612Z,520.47
2024-05-09T08:47:18.443Z,518.53
2024-05-09T08:48:25.369Z,519.47
2024-05-09T08:49:32.240Z,518.37
2024-05-09T08:50:40.164Z,518.37
2024-05-09T08:51:47.308Z,519.30
2024-05-09T08:52:54.007Z,522.67
2024-05-09T08:54:00.776Z,525.37
2024-05-09T08:55:07.614Z,526.83
2024-05-09T08:56:14.468Z,524.60
2024-05-09T08:57:21.189Z,524.43
2024-05-09T08:58:27.911Z,525.07
2024-05-09T08:59:34.651Z,524.17
2024-05-09T09:00:41.486Z,521.37
2024-05-09T09:01:48.422Z,517.97
2024-05-09T09:02:55.206Z,517.67
2024-05-09T09:04:02.253Z,519.33
2024-05-09T09:05:09.234Z,521.53
2024-05-09T09:06:16.122Z,519.50
2024-05-09T09:07:22.909Z,521.37
2024-05-09T09:08:29.693Z,521.30
2024-05-09T09:09:36.515Z,522.10
2024-05-09T09:10:43.523Z,520.40
2024-05-09T09:11:50.328Z,521.30
2024-05-09T09:12:57.067Z,522.10
2024-05-09T09:14:03.808Z,521.27
2024-05-09T09:15:10.540Z,519.00
2024-05-09T09:16:17.484Z,519.50
2024-05-09T09:17:24.356Z,518.30
2024-05-09T09:18:31.470Z,518.13
2024-05-09T09:19:38.505Z,517.50
2024-05-09T09:20:45.270Z,518.20
2024-05-09T09:21:52.057Z,518.30
2024-05-09T09:22:58.798Z,516.47
2024-05-09T09:24:06.991Z,516.60
2024-05-09T09:25:14.862Z,517.70
2024-05-09T09:26:21.607Z,518.53
2024-05-09T09:27:28.399Z,517.23
2024-05-09T09:28:35.090Z,515.07
2024-05-09T09:29:41.807Z,516.83
2024-05-09T09:30:48.552Z,518.00
2024-05-09T09:31:55.249Z,517.20
2024-05-09T09:33:02.109Z,518.80
2024-05-09T09:34:09.130Z,520.70
2024-05-09T09:35:16.217Z,521.90
2024-05-09T09:36:22.941Z,517.70
2024-05-09T09:37:29.686Z,514.20
2024-05-09T09:38:36.415Z,519.07
2024-05-09T09:39:43.155Z,518.20
2024-05-09T09:40:50.256Z,517.73
2024-05-09T09:41:57.119Z,516.63
2024-05-09T09:43:03.862Z,515.23
2024-05-09T09:44:10.632Z,516.70
2024-05-09T09:45:17.355Z,519.20
2024-05-09T09:46:24.230Z,516.83
2024-05-09T09:47:31.136Z,516.47
2024-05-09T09:48:38.001Z,516.27
2024-05-09T09:49:44.824Z,517.13
2024-05-09T09:50:51.636Z,517.80
2024-05-09T09:51:58.427Z,518.90
2024-05-09T09:53:05.171Z,516.43
2024-05-09T09:54:11.868Z,512.80
2024-05-09T09:55:18.625Z,511.20
2024-05-09T09:56:25.420Z,514.33
2024-05-09T09:57:32.167Z,514.47
2024-05-09T09:58:38.897Z,515.07
2024-05-09T09:59:45.612Z,515.53
2024-05-09T10:00:52.398Z,518.53
2024-05-09T10:01:59.282Z,518.20
2024-05-09T10:03:06.081Z,518.07
2024-05-09T10:04:12.841Z,518.90
2024-05-09T10:05:19.734Z,517.27
2024-05-09T10:06:26.566Z,515.33
2024-05-09T10:07:33.323Z,514.47
2024-05-09T10:08:40.295Z,516.57
2024-05-09T10:09:47.215Z,517.80
2024-05-09T10:10:54.215Z,517.33
2024-05-09T10:12:01.159Z,520.23
2024-05-09T10:13:08.603Z,521.23
2024-05-09T10:14:15.517Z,523.20
2024-05-09T10:15:22.235Z,521.97
2024-05-09T10:16:29.030Z,519.07
2024-05-09T10:17:35.883Z,518.50
2024-05-09T10:18:42.988Z,521.07
2024-05-09T10:19:50.110Z,523.00
2024-05-09T10:20:56.867Z,527.03
2024-05-09T10:22:03.677Z,525.47
2024-05-09T10:23:10.503Z,525.07
2024-05-09T10:24:17.240Z,525.80
2024-05-09T10:25:24.361Z,525.80
2024-05-09T10:26:31.170Z,524.80
2024-05-09T10:27:37.918Z,524.67
2024-05-09T10:28:44.669Z,523.93
2024-05-09T10:29:51.401Z,522.17
2024-05-09T10:30:58.156Z,522.40
2024-05-09T10:32:04.850Z,523.30
2024-05-09T10:33:11.984Z,525.30
2024-05-09T10:34:19.220Z,526.47
2024-05-09T10:35:26.162Z,523.33
2024-05-09T10:36:32.913Z,523.87
2024-05-09T10:37:39.643Z,522.43
2024-05-09T10:38:46.363Z,520.07
2024-05-09T10:39:53.136Z,519.30
2024-05-09T10:40:59.888Z,517.63
2024-05-09T10:42:06.696Z,518.10
2024-05-09T10:43:13.547Z,517.60
2024-05-09T10:44:20.276Z,514.97
2024-05-09T10:45:27.097Z,516.73
2024-05-09T10:46:34.146Z,518.20
2024-05-09T10:47:40.933Z,517.77
2024-05-09T10:48:48.429Z,517.97
2024-05-09T10:49:55.681Z,519.37
2024-05-09T10:51:02.455Z,523.23
2024-05-09T10:52:09.266Z,523.17
2024-05-09T10:53:16.115Z,522.60
2024-05-09T10:54:22.815Z,525.40
2024-05-09T10:55:29.618Z,524.77
2024-05-09T10:56:36.332Z,524.87
2024-05-09T10:57:43.156Z,523.33
2024-05-09T10:58:49.888Z,522.70
2024-05-09T10:59:56.614Z,521.00
2024-05-09T11:01:06.613Z,521.57
2024-05-09T11:02:14.220Z,520.70
2024-05-09T11:03:21.104Z,519.47
2024-05-09T11:04:27.869Z,519.00
2024-05-09T11:05:34.813Z,520.10
2024-05-09T11:06:41.736Z,519.67
2024-05-09T11:07:48.510Z,519.33
2024-05-09T11:08:55.247Z,520.30
2024-05-09T11:10:02.086Z,518.90
2024-05-09T11:11:09.159Z,519.80
2024-05-09T11:12:16.015Z,520.03
2024-05-09T11:13:22.791Z,521.30
2024-05-09T11:14:29.528Z,519.60
2024-05-09T11:15:36.415Z,519.57
2024-05-09T11:16:43.108Z,517.47
2024-05-09T11:17:49.871Z,515.00
2024-05-09T11:18:57.056Z,516.57
2024-05-09T11:20:10.470Z,519.47
2024-05-09T11:21:15.583Z,521.57
2024-05-09T11:22:22.360Z,520.50
2024-05-09T11:23:29.123Z,521.87
2024-05-09T11:24:35.937Z,521.83
2024-05-09T11:25:42.706Z,522.63
2024-05-09T11:26:49.422Z,523.03
2024-05-09T11:27:56.169Z,522.63
2024-05-09T11:29:02.887Z,520.43
2024-05-09T11:30:14.309Z,523.20
2024-05-09T11:31:21.611Z,523.20
2024-05-09T11:32:28.893Z,520.93
2024-05-09T11:33:35.920Z,520.30
2024-05-09T11:34:42.979Z,518.77
2024-05-09T11:35:49.832Z,520.83
2024-05-09T11:36:56.633Z,523.10
2024-05-09T11:38:03.391Z,524.20
2024-05-09T11:39:10.092Z,522.43
2024-05-09T11:40:24.734Z,521.63
2024-05-09T11:41:28.456Z,524.23
2024-05-09T11:42:35.196Z,520.67
2024-05-09T11:43:41.895Z,519.97
2024-05-09T11:44:48.617Z,521.93
2024-05-09T11:45:55.385Z,524.13
2024-05-09T11:47:02.168Z,525.87
2024-05-09T11:48:09.023Z,524.10
2024-05-09T11:49:15.864Z,521.57
2024-05-09T11:50:29.605Z,520.30
2024-05-09T11:51:34.352Z,520.37
2024-05-09T11:52:41.125Z,518.90
2024-05-09T11:53:47.821Z,510.63
2024-05-09T11:54:54.646Z,514.27
2024-05-09T11:56:01.433Z,512.50
2024-05-09T11:57:08.108Z,511.57
2024-05-09T11:58:14.925Z,511.20
2024-05-09T11:59:21.634Z,511.47
2024-05-09T12:00:34.317Z,514.00
2024-05-09T12:01:40.086Z,515.67
2024-05-09T12:02:46.879Z,516.60
2024-05-09T12:03:53.793Z,518.03
2024-05-09T12:05:00.803Z,517.57
2024-05-09T12:06:07.808Z,518.27
2024-05-09T12:07:14.680Z,520.30
2024-05-09T12:08:21.434Z,519.77
2024-05-09T12:09:28.253Z,520.60
2024-05-09T12:10:36.464Z,522.37
2024-05-09T12:11:43.744Z,522.90
2024-05-09T12:12:50.543Z,526.47
2024-05-09T12:13:57.265Z,526.70
2024-05-09T12:15:04.046Z,527.77
2024-05-09T12:16:10.849Z,525.50
2024-05-09T12:17:17.676Z,522.50
2024-05-09T12:18:24.475Z,520.93
2024-05-09T12:19:31.324Z,521.83
2024-05-09T12:20:39.915Z,522.80
2024-05-09T12:21:47.160Z,522.97
2024-05-09T12:22:53.869Z,524.03
2024-05-09T12:24:00.579Z,525.13
2024-05-09T12:25:07.405Z,523.47
2024-05-09T12:26:14.184Z,519.77
2024-05-09T12:27:20.962Z,519.33
2024-05-09T12:28:27.744Z,518.77
2024-05-09T12:29:37.586Z,522.27
2024-05-09T12:30:45.386Z,521.57
2024-05-09T12:31:52.205Z,525.33
2024-05-09T12:32:59.011Z,529.37
2024-05-09T12:34:05.905Z,529.03
2024-05-09T12:35:12.747Z,528.33
2024-05-09T12:36:19.474Z,531.37
2024-05-09T12:37:26.267Z,533.20
2024-05-09T12:38:32.979Z,533.10
2024-05-09T12:39:39.741Z,532.43
2024-05-09T12:40:46.559Z,531.87
2024-05-09T12:41:53.394Z,531.83
2024-05-09T12:43:00.185Z,533.23
2024-05-09T12:44:06.884Z,532.67
2024-05-09T12:45:13.636Z,531.17
2024-05-09T12:46:20.429Z,532.40
2024-05-09T12:47:27.299Z,531.10
2024-05-09T12:48:34.274Z,529.23
2024-05-09T12:49:41.190Z,527.40
2024-05-09T12:50:48.163Z,524.20
2024-05-09T12:51:55.125Z,522.03
2024-05-09T12:53:03.059Z,522.13
2024-05-09T12:54:10.691Z,522.33
2024-05-09T12:55:17.494Z,521.83
2024-05-09T12:56:24.329Z,523.17
2024-05-09T12:57:31.088Z,522.53
2024-05-09T12:58:37.852Z,523.90
2024-05-09T12:59:44.605Z,528.17
2024-05-09T13:00:51.518Z,528.67
2024-05-09T13:02:00.541Z,530.30
2024-05-09T13:03:07.985Z,531.17
2024-05-09T13:04:14.905Z,527.27
2024-05-09T13:05:21.924Z,527.77
2024-05-09T13:06:28.764Z,527.63
2024-05-09T13:07:35.481Z,526.67
2024-05-09T13:08:42.191Z,523.90
2024-05-09T13:09:48.959Z,524.30
2024-05-09T13:10:55.730Z,525.60
2024-05-09T13:12:02.461Z,519.90
2024-05-09T13:13:09.413Z,522.43
2024-05-09T13:14:16.277Z,523.77
2024-05-09T13:15:23.022Z,523.67
2024-05-09T13:16:29.768Z,523.00
2024-05-09T13:17:36.597Z,525.63
2024-05-09T13:18:43.524Z,525.43
2024-05-09T13:19:50.218Z,526.07
2024-05-09T13:20:56.940Z,526.47
2024-05-09T13:22:03.761Z,525.53
2024-05-09T13:23:10.471Z,522.87
2024-05-09T13:24:17.179Z,521.37
2024-05-09T13:25:23.895Z,523.43
2024-05-09T13:26:30.634Z,524.63
2024-05-09T13:27:37.420Z,522.17
2024-05-09T13:28:44.123Z,521.03
2024-05-09T13:29:50.895Z,522.77
2024-05-09T13:30:57.643Z,524.53
2024-05-09T13:32:04.406Z,525.63
2024-05-09T13:33:12.421Z,526.37
2024-05-09T13:34:20.005Z,526.97
2024-05-09T13:35:26.728Z,530.43
2024-05-09T13:36:33.480Z,532.57
2024-05-09T13:37:40.181Z,533.23
2024-05-09T13:38:46.924Z,531.30
2024-05-09T13:39:53.649Z,530.10
2024-05-09T13:41:00.417Z,528.40
2024-05-09T13:42:07.232Z,528.03
2024-05-09T13:43:14.023Z,529.07
2024-05-09T13:44:20.790Z,528.27
2024-05-09T13:45:27.553Z,526.10
2024-05-09T13:46:34.379Z,527.33
2024-05-09T13:47:41.445Z,529.63
2024-05-09T13:48:48.370Z,531.50
2024-05-09T13:49:55.156Z,533.70
2024-05-09T13:51:01.904Z,532.67
2024-05-09T13:52:08.777Z,533.83
2024-05-09T13:53:15.572Z,535.60
2024-05-09T13:54:22.787Z,534.67
2024-05-09T13:55:29.647Z,532.60
2024-05-09T13:56:36.390Z,531.57
2024-05-09T13:57:43.152Z,536.93
2024-05-09T13:58:49.837Z,538.00
2024-05-09T13:59:56.556Z,537.83
2024-05-09T14:01:03.431Z,541.90
2024-05-09T14:02:10.430Z,544.03